sensor_id;sensor_type;location;lat;lon;timestamp;pressure;altitude;pressure_sealevel;temperature;humidity
9750;BME280;4914;43.218;27.908;2023-01-29T00:00:21;101029.53;;;2.35;100.00
9750;BME280;4914;43.218;27.908;2023-01-29T00:02:48;101026.63;;;2.43;100.00
9750;BME280;4914;43.218;27.908;2023-01-29T00:05:15;101018.75;;;2.44;100.00
9750;BME280;4914;43.218;27.908;2023-01-29T00:07:43;101027.84;;;2.34;100.00
9750;BME280;4914;43.218;27.908;2023-01-29T00:10:11;101024.03;;;2.43;100.00
9750;BME280;4914;43.218;27.908;2023-01-29T00:12:38;101019.69;;;2.42;100.00
9750;BME280;4914;43.218;27.908;2023-01-29T00:15:06;101033.41;;;2.25;100.00
9750;BME280;4914;43.218;27.908;2023-01-29T00:17:33;101026.00;;;2.36;100.00
9750;BME280;4914;43.218;27.908;2023-01-29T00:20:00;101038.41;;;2.31;100.00
9750;BME280;4914;43.218;27.908;2023-01-29T00:22:29;101033.47;;;2.47;100.00
9750;BME280;4914;43.218;27.908;2023-01-29T00:24:57;101039.44;;;2.50;100.00
9750;BME280;4914;43.218;27.908;2023-01-29T00:27:24;101043.09;;;2.23;100.00
9750;BME280;4914;43.218;27.908;2023-01-29T00:29:51;101038.41;;;2.31;100.00
9750;BME280;4914;43.218;27.908;2023-01-29T00:32:34;101044.47;;;2.33;100.00
9750;BME280;4914;43.218;27.908;2023-01-29T00:35:01;101044.13;;;2.42;100.00
9750;BME280;4914;43.218;27.908;2023-01-29T00:37:28;101042.75;;;2.32;100.00
9750;BME280;4914;43.218;27.908;2023-01-29T00:39:56;101037.88;;;2.22;100.00
9750;BME280;4914;43.218;27.908;2023-01-29T00:42:23;101036.94;;;2.24;100.00
9750;BME280;4914;43.218;27.908;2023-01-29T00:45:08;101042.59;;;2.12;100.00
9750;BME280;4914;43.218;27.908;2023-01-29T00:47:36;101044.09;;;2.19;100.00
9750;BME280;4914;43.218;27.908;2023-01-29T00:50:04;101036.63;;;2.08;100.00
9750;BME280;4914;43.218;27.908;2023-01-29T00:52:32;101044.06;;;2.21;100.00
9750;BME280;4914;43.218;27.908;2023-01-29T00:55:03;101052.66;;;2.24;100.00
9750;BME280;4914;43.218;27.908;2023-01-29T00:57:32;101043.03;;;2.25;100.00
9750;BME280;4914;43.218;27.908;2023-01-29T00:59:59;101042.91;;;2.28;100.00
9750;BME280;4914;43.218;27.908;2023-01-29T01:02:27;101033.09;;;2.34;100.00
9750;BME280;4914;43.218;27.908;2023-01-29T01:05:13;101046.16;;;2.11;100.00
9750;BME280;4914;43.218;27.908;2023-01-29T01:07:42;101051.16;;;2.17;100.00
9750;BME280;4914;43.218;27.908;2023-01-29T01:10:12;101040.91;;;2.11;100.00
9750;BME280;4914;43.218;27.908;2023-01-29T01:12:45;101042.03;;;2.04;100.00
9750;BME280;4914;43.218;27.908;2023-01-29T01:15:12;101042.59;;;2.12;100.00
9750;BME280;4914;43.218;27.908;2023-01-29T01:17:39;101042.78;;;2.07;100.00
9750;BME280;4914;43.218;27.908;2023-01-29T01:20:07;101047.31;;;2.02;100.00
9750;BME280;4914;43.218;27.908;2023-01-29T01:22:34;101035.69;;;2.11;100.00
9750;BME280;4914;43.218;27.908;2023-01-29T01:25:01;101043.63;;;2.08;100.00
9750;BME280;4914;43.218;27.908;2023-01-29T01:27:29;101050.91;;;2.00;100.00
9750;BME280;4914;43.218;27.908;2023-01-29T01:29:56;101052.13;;;1.90;100.00
9750;BME280;4914;43.218;27.908;2023-01-29T01:32:23;101051.28;;;1.89;100.00
9750;BME280;4914;43.218;27.908;2023-01-29T01:34:51;101066.97;;;1.89;100.00
9750;BME280;4914;43.218;27.908;2023-01-29T01:37:18;101059.59;;;1.75;100.00
9750;BME280;4914;43.218;27.908;2023-01-29T01:39:45;101059.41;;;1.82;100.00
9750;BME280;4914;43.218;27.908;2023-01-29T01:42:13;101070.50;;;1.88;100.00
9750;BME280;4914;43.218;27.908;2023-01-29T01:44:56;101077.66;;;1.83;100.00
9750;BME280;4914;43.218;27.908;2023-01-29T01:47:29;101068.69;;;1.90;100.00
9750;BME280;4914;43.218;27.908;2023-01-29T01:49:59;101070.19;;;2.22;100.00
9750;BME280;4914;43.218;27.908;2023-01-29T01:52:30;101075.69;;;2.39;100.00
9750;BME280;4914;43.218;27.908;2023-01-29T01:54:58;101071.78;;;2.26;100.00
9750;BME280;4914;43.218;27.908;2023-01-29T01:57:27;101069.00;;;2.31;100.00
9750;BME280;4914;43.218;27.908;2023-01-29T02:00:02;101062.25;;;2.25;100.00
9750;BME280;4914;43.218;27.908;2023-01-29T02:02:35;101077.13;;;2.23;100.00
9750;BME280;4914;43.218;27.908;2023-01-29T02:05:19;101081.09;;;2.10;100.00
9750;BME280;4914;43.218;27.908;2023-01-29T02:08:04;101083.81;;;2.32;100.00
9750;BME280;4914;43.218;27.908;2023-01-29T02:10:48;101093.28;;;2.36;100.00
9750;BME280;4914;43.218;27.908;2023-01-29T02:13:15;101086.22;;;2.13;100.00
9750;BME280;4914;43.218;27.908;2023-01-29T02:15:44;101080.78;;;2.19;100.00
9750;BME280;4914;43.218;27.908;2023-01-29T02:18:15;101089.41;;;2.21;100.00
9750;BME280;4914;43.218;27.908;2023-01-29T02:20:47;101077.78;;;2.05;100.00
9750;BME280;4914;43.218;27.908;2023-01-29T02:26:36;101086.59;;;2.27;100.00
9750;BME280;4914;43.218;27.908;2023-01-29T02:29:09;101082.69;;;2.39;100.00
9750;BME280;4914;43.218;27.908;2023-01-29T02:32:10;101083.94;;;2.29;100.00
9750;BME280;4914;43.218;27.908;2023-01-29T02:34:45;101076.59;;;2.38;100.00
9750;BME280;4914;43.218;27.908;2023-01-29T02:37:35;101071.00;;;2.24;100.00
9750;BME280;4914;43.218;27.908;2023-01-29T02:40:10;101070.78;;;2.05;100.00
9750;BME280;4914;43.218;27.908;2023-01-29T02:42:43;101067.53;;;1.99;100.00
9750;BME280;4914;43.218;27.908;2023-01-29T02:45:18;101075.41;;;1.97;100.00
9750;BME280;4914;43.218;27.908;2023-01-29T02:47:53;101083.38;;;1.94;100.00
9750;BME280;4914;43.218;27.908;2023-01-29T02:50:27;101065.56;;;1.79;100.00
9750;BME280;4914;43.218;27.908;2023-01-29T02:52:59;101028.22;;;1.74;100.00
9750;BME280;4914;43.218;27.908;2023-01-29T02:55:32;101035.50;;;1.66;100.00
9750;BME280;4914;43.218;27.908;2023-01-29T02:58:04;101035.75;;;1.58;100.00
9750;BME280;4914;43.218;27.908;2023-01-29T03:00:37;101037.06;;;1.71;100.00
9750;BME280;4914;43.218;27.908;2023-01-29T03:03:10;101029.53;;;1.62;100.00
9750;BME280;4914;43.218;27.908;2023-01-29T03:05:44;101042.84;;;1.55;100.00
9750;BME280;4914;43.218;27.908;2023-01-29T03:08:20;101032.44;;;1.53;100.00
9750;BME280;4914;43.218;27.908;2023-01-29T03:10:52;101022.19;;;1.47;100.00
9750;BME280;4914;43.218;27.908;2023-01-29T03:13:28;101025.69;;;1.46;100.00
9750;BME280;4914;43.218;27.908;2023-01-29T03:15:59;101036.03;;;1.49;100.00
9750;BME280;4914;43.218;27.908;2023-01-29T03:18:31;101035.84;;;1.55;100.00
9750;BME280;4914;43.218;27.908;2023-01-29T03:21:04;101027.28;;;1.50;100.00
9750;BME280;4914;43.218;27.908;2023-01-29T03:23:54;101017.56;;;1.54;100.00
9750;BME280;4914;43.218;27.908;2023-01-29T03:26:39;101039.38;;;1.54;100.00
9750;BME280;4914;43.218;27.908;2023-01-29T03:29:25;101026.25;;;1.56;100.00
9750;BME280;4914;43.218;27.908;2023-01-29T03:32:11;101013.19;;;1.54;100.00
9750;BME280;4914;43.218;27.908;2023-01-29T03:34:41;101018.44;;;1.54;100.00
9750;BME280;4914;43.218;27.908;2023-01-29T03:37:14;101016.81;;;1.50;100.00
9750;BME280;4914;43.218;27.908;2023-01-29T03:39:43;101010.50;;;1.57;100.00
9750;BME280;4914;43.218;27.908;2023-01-29T03:42:17;101025.38;;;1.55;100.00
9750;BME280;4914;43.218;27.908;2023-01-29T03:44:53;101018.44;;;1.54;100.00
9750;BME280;4914;43.218;27.908;2023-01-29T03:47:33;101006.16;;;1.56;100.00
9750;BME280;4914;43.218;27.908;2023-01-29T03:50:10;101018.38;;;1.56;100.00
9750;BME280;4914;43.218;27.908;2023-01-29T03:52:43;101018.66;;;1.48;100.00
9750;BME280;4914;43.218;27.908;2023-01-29T03:55:15;101037.72;;;1.52;100.00
9750;BME280;4914;43.218;27.908;2023-01-29T03:57:50;101028.34;;;1.45;100.00
9750;BME280;4914;43.218;27.908;2023-01-29T04:00:22;101050.66;;;1.56;100.00
9750;BME280;4914;43.218;27.908;2023-01-29T04:03:01;101031.03;;;1.43;100.00
9750;BME280;4914;43.218;27.908;2023-01-29T04:05:34;101036.28;;;1.43;100.00
9750;BME280;4914;43.218;27.908;2023-01-29T04:08:09;101053.88;;;1.38;100.00
9750;BME280;4914;43.218;27.908;2023-01-29T04:10:39;101056.66;;;1.58;100.00
9750;BME280;4914;43.218;27.908;2023-01-29T04:13:09;101055.56;;;1.39;100.00
9750;BME280;4914;43.218;27.908;2023-01-29T04:15:41;101069.66;;;1.35;100.00
9750;BME280;4914;43.218;27.908;2023-01-29T04:18:10;101074.81;;;1.38;100.00
9750;BME280;4914;43.218;27.908;2023-01-29T04:20:37;101086.31;;;1.33;100.00
9750;BME280;4914;43.218;27.908;2023-01-29T04:23:05;101099.34;;;1.34;100.00
9750;BME280;4914;43.218;27.908;2023-01-29T04:25:41;101109.59;;;1.40;100.00
9750;BME280;4914;43.218;27.908;2023-01-29T04:28:16;101131.31;;;1.44;100.00
9750;BME280;4914;43.218;27.908;2023-01-29T04:30:51;101138.81;;;1.54;100.00
9750;BME280;4914;43.218;27.908;2023-01-29T04:33:30;101140.53;;;1.55;100.00
9750;BME280;4914;43.218;27.908;2023-01-29T04:36:10;101144.09;;;1.53;100.00
9750;BME280;4914;43.218;27.908;2023-01-29T04:38:46;101154.31;;;1.60;100.00
9750;BME280;4914;43.218;27.908;2023-01-29T04:41:21;101156.03;;;1.61;100.00
9750;BME280;4914;43.218;27.908;2023-01-29T04:43:57;101154.41;;;1.85;100.00
9750;BME280;4914;43.218;27.908;2023-01-29T04:46:30;101155.25;;;1.86;100.00
9750;BME280;4914;43.218;27.908;2023-01-29T04:49:08;101153.50;;;1.58;100.00
9750;BME280;4914;43.218;27.908;2023-01-29T04:51:44;101148.03;;;1.92;100.00
9750;BME280;4914;43.218;27.908;2023-01-29T04:54:17;101162.41;;;1.81;100.00
9750;BME280;4914;43.218;27.908;2023-01-29T04:56:52;101166.25;;;1.69;100.00
9750;BME280;4914;43.218;27.908;2023-01-29T04:59:23;101160.28;;;1.92;100.00
9750;BME280;4914;43.218;27.908;2023-01-29T05:01:53;101163.19;;;2.09;100.00
9750;BME280;4914;43.218;27.908;2023-01-29T05:04:23;101159.91;;;2.02;100.00
9750;BME280;4914;43.218;27.908;2023-01-29T05:06:52;101169.66;;;1.72;100.00
9750;BME280;4914;43.218;27.908;2023-01-29T05:09:18;101168.13;;;1.65;100.00
9750;BME280;4914;43.218;27.908;2023-01-29T05:11:46;101169.78;;;1.94;100.00
9750;BME280;4914;43.218;27.908;2023-01-29T05:14:17;101168.81;;;1.97;100.00
9750;BME280;4914;43.218;27.908;2023-01-29T05:16:46;101166.50;;;1.88;100.00
9750;BME280;4914;43.218;27.908;2023-01-29T05:19:15;101168.53;;;1.80;100.00
9750;BME280;4914;43.218;27.908;2023-01-29T05:21:45;101170.22;;;1.82;100.00
9750;BME280;4914;43.218;27.908;2023-01-29T05:24:15;101170.34;;;2.04;100.00
9750;BME280;4914;43.218;27.908;2023-01-29T05:26:47;101173.69;;;2.09;100.00
9750;BME280;4914;43.218;27.908;2023-01-29T05:29:32;101185.78;;;1.87;100.00
9750;BME280;4914;43.218;27.908;2023-01-29T05:31:59;101178.16;;;1.79;100.00
9750;BME280;4914;43.218;27.908;2023-01-29T05:34:26;101181.69;;;2.04;100.00
9750;BME280;4914;43.218;27.908;2023-01-29T05:36:54;101176.97;;;2.15;100.00
9750;BME280;4914;43.218;27.908;2023-01-29T05:39:21;101175.25;;;2.14;100.00
9750;BME280;4914;43.218;27.908;2023-01-29T05:41:48;101177.69;;;1.93;100.00
9750;BME280;4914;43.218;27.908;2023-01-29T05:44:15;101187.16;;;1.97;100.00
9750;BME280;4914;43.218;27.908;2023-01-29T05:46:41;101190.78;;;1.93;100.00
9750;BME280;4914;43.218;27.908;2023-01-29T05:49:09;101195.94;;;2.22;100.00
9750;BME280;4914;43.218;27.908;2023-01-29T05:51:36;101192.72;;;2.14;100.00
9750;BME280;4914;43.218;27.908;2023-01-29T05:54:05;101193.94;;;2.30;100.00
9750;BME280;4914;43.218;27.908;2023-01-29T05:56:32;101195.34;;;2.14;100.00
9750;BME280;4914;43.218;27.908;2023-01-29T05:58:59;101202.69;;;2.29;100.00
9750;BME280;4914;43.218;27.908;2023-01-29T06:01:26;101199.75;;;2.12;100.00
9750;BME280;4914;43.218;27.908;2023-01-29T06:03:52;101208.75;;;2.05;100.00
9750;BME280;4914;43.218;27.908;2023-01-29T06:06:19;101205.59;;;1.94;100.00
9750;BME280;4914;43.218;27.908;2023-01-29T06:08:46;101219.81;;;1.87;100.00
9750;BME280;4914;43.218;27.908;2023-01-29T06:11:15;101223.22;;;1.89;100.00
9750;BME280;4914;43.218;27.908;2023-01-29T06:13:43;101216.47;;;2.08;100.00
9750;BME280;4914;43.218;27.908;2023-01-29T06:16:10;101222.03;;;1.99;100.00
9750;BME280;4914;43.218;27.908;2023-01-29T06:18:38;101233.78;;;2.13;100.00
9750;BME280;4914;43.218;27.908;2023-01-29T06:21:07;101227.84;;;2.07;100.00
9750;BME280;4914;43.218;27.908;2023-01-29T06:23:34;101221.50;;;2.15;100.00
9750;BME280;4914;43.218;27.908;2023-01-29T06:26:03;101218.00;;;2.15;100.00
9750;BME280;4914;43.218;27.908;2023-01-29T06:28:32;101225.78;;;2.16;100.00
9750;BME280;4914;43.218;27.908;2023-01-29T06:31:00;101233.63;;;2.18;100.00
9750;BME280;4914;43.218;27.908;2023-01-29T06:33:27;101232.53;;;2.25;100.00
9750;BME280;4914;43.218;27.908;2023-01-29T06:35:55;101244.50;;;2.32;100.00
9750;BME280;4914;43.218;27.908;2023-01-29T06:38:25;101250.88;;;2.25;100.00
9750;BME280;4914;43.218;27.908;2023-01-29T06:40:52;101248.13;;;2.28;100.00
9750;BME280;4914;43.218;27.908;2023-01-29T06:43:19;101249.34;;;2.18;100.00
9750;BME280;4914;43.218;27.908;2023-01-29T06:45:49;101242.19;;;2.23;100.00
9750;BME280;4914;43.218;27.908;2023-01-29T06:48:17;101247.63;;;2.43;100.00
9750;BME280;4914;43.218;27.908;2023-01-29T06:50:44;101263.03;;;2.52;100.00
9750;BME280;4914;43.218;27.908;2023-01-29T06:53:11;101246.66;;;2.46;100.00
9750;BME280;4914;43.218;27.908;2023-01-29T06:55:38;101246.41;;;2.53;100.00
9750;BME280;4914;43.218;27.908;2023-01-29T06:58:05;101255.03;;;2.82;100.00
9750;BME280;4914;43.218;27.908;2023-01-29T07:00:32;101249.03;;;2.53;100.00
9750;BME280;4914;43.218;27.908;2023-01-29T07:03:01;101255.53;;;2.42;100.00
9750;BME280;4914;43.218;27.908;2023-01-29T07:05:28;101253.97;;;2.62;100.00
9750;BME280;4914;43.218;27.908;2023-01-29T07:08:12;101265.81;;;2.48;100.00
9750;BME280;4914;43.218;27.908;2023-01-29T07:10:39;101254.66;;;2.41;100.00
9750;BME280;4914;43.218;27.908;2023-01-29T07:13:06;101260.09;;;2.35;100.00
9750;BME280;4914;43.218;27.908;2023-01-29T07:15:33;101273.41;;;2.55;100.00
9750;BME280;4914;43.218;27.908;2023-01-29T07:18:02;101267.53;;;2.49;100.00
9750;BME280;4914;43.218;27.908;2023-01-29T07:20:36;101253.19;;;2.34;100.00
9750;BME280;4914;43.218;27.908;2023-01-29T07:23:03;101269.69;;;2.36;100.00
9750;BME280;4914;43.218;27.908;2023-01-29T07:25:30;101265.16;;;2.41;100.00
9750;BME280;4914;43.218;27.908;2023-01-29T07:27:59;101270.25;;;2.72;100.00
9750;BME280;4914;43.218;27.908;2023-01-29T07:30:26;101264.66;;;2.56;100.00
9750;BME280;4914;43.218;27.908;2023-01-29T07:32:52;101277.25;;;2.45;100.00
9750;BME280;4914;43.218;27.908;2023-01-29T07:35:21;101275.03;;;2.59;100.00
9750;BME280;4914;43.218;27.908;2023-01-29T07:37:48;101261.81;;;2.36;100.00
9750;BME280;4914;43.218;27.908;2023-01-29T07:40:15;101291.06;;;2.50;100.00
9750;BME280;4914;43.218;27.908;2023-01-29T07:42:42;101288.63;;;2.71;100.00
9750;BME280;4914;43.218;27.908;2023-01-29T07:45:10;101288.94;;;2.61;100.00
9750;BME280;4914;43.218;27.908;2023-01-29T07:47:37;101298.47;;;2.64;100.00
9750;BME280;4914;43.218;27.908;2023-01-29T07:50:05;101286.50;;;2.82;100.00
9750;BME280;4914;43.218;27.908;2023-01-29T07:52:33;101303.66;;;2.92;100.00
9750;BME280;4914;43.218;27.908;2023-01-29T07:55:00;101294.44;;;3.05;100.00
9750;BME280;4914;43.218;27.908;2023-01-29T07:57:27;101305.78;;;2.81;100.00
9750;BME280;4914;43.218;27.908;2023-01-29T07:59:55;101311.28;;;2.73;100.00
9750;BME280;4914;43.218;27.908;2023-01-29T08:02:22;101299.00;;;2.74;100.00
9750;BME280;4914;43.218;27.908;2023-01-29T08:04:48;101297.63;;;2.63;100.00
9750;BME280;4914;43.218;27.908;2023-01-29T08:07:15;101293.69;;;2.77;100.00
9750;BME280;4914;43.218;27.908;2023-01-29T08:09:43;101289.84;;;2.60;100.00
9750;BME280;4914;43.218;27.908;2023-01-29T08:12:10;101279.44;;;2.59;100.00
9750;BME280;4914;43.218;27.908;2023-01-29T08:14:37;101304.56;;;2.64;100.00
9750;BME280;4914;43.218;27.908;2023-01-29T08:17:04;101286.03;;;2.44;100.00
9750;BME280;4914;43.218;27.908;2023-01-29T08:19:31;101288.81;;;2.40;100.00
9750;BME280;4914;43.218;27.908;2023-01-29T08:21:57;101283.59;;;2.38;100.00
9750;BME280;4914;43.218;27.908;2023-01-29T08:24:24;101293.94;;;2.43;100.00
9750;BME280;4914;43.218;27.908;2023-01-29T08:26:52;101295.56;;;2.47;100.00
9750;BME280;4914;43.218;27.908;2023-01-29T08:29:19;101301.25;;;2.33;100.00
9750;BME280;4914;43.218;27.908;2023-01-29T08:31:46;101304.31;;;2.46;100.00
9750;BME280;4914;43.218;27.908;2023-01-29T08:34:13;101279.53;;;2.30;100.00
9750;BME280;4914;43.218;27.908;2023-01-29T08:36:40;101287.28;;;2.33;100.00
9750;BME280;4914;43.218;27.908;2023-01-29T08:39:07;101292.97;;;2.45;100.00
9750;BME280;4914;43.218;27.908;2023-01-29T08:41:34;101290.72;;;2.35;100.00
9750;BME280;4914;43.218;27.908;2023-01-29T08:44:02;101292.66;;;2.28;100.00
9750;BME280;4914;43.218;27.908;2023-01-29T08:46:30;101279.53;;;2.30;100.00
9750;BME280;4914;43.218;27.908;2023-01-29T08:48:57;101279.47;;;2.31;100.00
9750;BME280;4914;43.218;27.908;2023-01-29T08:51:24;101280.31;;;2.32;100.00
9750;BME280;4914;43.218;27.908;2023-01-29T08:53:52;101279.47;;;2.31;100.00
9750;BME280;4914;43.218;27.908;2023-01-29T08:56:19;101284.81;;;2.28;100.00
9750;BME280;4914;43.218;27.908;2023-01-29T08:58:45;101284.69;;;2.31;100.00
9750;BME280;4914;43.218;27.908;2023-01-29T09:01:14;101280.38;;;2.30;100.00
9750;BME280;4914;43.218;27.908;2023-01-29T09:03:41;101293.50;;;2.30;100.00
9750;BME280;4914;43.218;27.908;2023-01-29T09:06:10;101300.34;;;2.34;100.00
9750;BME280;4914;43.218;27.908;2023-01-29T09:08:37;101292.34;;;2.39;100.00
9750;BME280;4914;43.218;27.908;2023-01-29T09:11:04;101280.66;;;2.49;100.00
9750;BME280;4914;43.218;27.908;2023-01-29T09:13:31;101286.06;;;2.43;100.00
9750;BME280;4914;43.218;27.908;2023-01-29T09:15:59;101281.28;;;2.29;100.00
9750;BME280;4914;43.218;27.908;2023-01-29T09:18:28;101284.91;;;2.25;100.00
9750;BME280;4914;43.218;27.908;2023-01-29T09:20:55;101275.28;;;2.26;100.00
9750;BME280;4914;43.218;27.908;2023-01-29T09:23:23;101286.31;;;2.35;100.00
9750;BME280;4914;43.218;27.908;2023-01-29T09:25:50;101293.03;;;2.44;100.00
9750;BME280;4914;43.218;27.908;2023-01-29T09:28:16;101288.59;;;2.46;100.00
9750;BME280;4914;43.218;27.908;2023-01-29T09:30:43;101290.97;;;2.53;100.00
9750;BME280;4914;43.218;27.908;2023-01-29T09:33:10;101284.06;;;2.51;100.00
9750;BME280;4914;43.218;27.908;2023-01-29T09:35:40;101291.84;;;2.54;100.00
9750;BME280;4914;43.218;27.908;2023-01-29T09:38:07;101272.56;;;2.55;100.00
9750;BME280;4914;43.218;27.908;2023-01-29T09:40:39;101274.44;;;2.51;100.00
9750;BME280;4914;43.218;27.908;2023-01-29T09:43:13;101263.16;;;2.49;100.00
9750;BME280;4914;43.218;27.908;2023-01-29T09:45:49;101259.44;;;2.55;100.00
9750;BME280;4914;43.218;27.908;2023-01-29T09:48:19;101259.28;;;2.59;100.00
9750;BME280;4914;43.218;27.908;2023-01-29T09:50:50;101268.72;;;2.65;100.00
9750;BME280;4914;43.218;27.908;2023-01-29T09:53:23;101261.38;;;2.75;100.00
9750;BME280;4914;43.218;27.908;2023-01-29T09:55:58;101270.81;;;2.80;100.00
9750;BME280;4914;43.218;27.908;2023-01-29T09:58:31;101263.94;;;2.78;100.00
9750;BME280;4914;43.218;27.908;2023-01-29T10:01:07;101262.94;;;2.80;100.00
9750;BME280;4914;43.218;27.908;2023-01-29T10:04:05;101267.25;;;2.83;100.00
9750;BME280;4914;43.218;27.908;2023-01-29T10:06:45;101279.72;;;2.76;100.00
9750;BME280;4914;43.218;27.908;2023-01-29T10:09:52;101265.47;;;2.83;100.00
9750;BME280;4914;43.218;27.908;2023-01-29T10:15:31;101253.28;;;2.82;100.00
9750;BME280;4914;43.218;27.908;2023-01-29T10:21:04;101264.91;;;2.74;100.00
9750;BME280;4914;43.218;27.908;2023-01-29T10:23:37;101260.59;;;2.73;100.00
9750;BME280;4914;43.218;27.908;2023-01-29T10:26:10;101261.19;;;2.81;100.00
9750;BME280;4914;43.218;27.908;2023-01-29T10:28:41;101267.34;;;2.80;100.00
9750;BME280;4914;43.218;27.908;2023-01-29T10:31:14;101264.91;;;2.98;100.00
9750;BME280;4914;43.218;27.908;2023-01-29T10:33:48;101262.72;;;2.61;100.00
9750;BME280;4914;43.218;27.908;2023-01-29T10:36:18;101264.50;;;2.61;100.00
9750;BME280;4914;43.218;27.908;2023-01-29T10:38:49;101248.91;;;2.56;100.00
9750;BME280;4914;43.218;27.908;2023-01-29T10:41:38;101258.38;;;2.60;100.00
9750;BME280;4914;43.218;27.908;2023-01-29T10:44:20;101277.78;;;2.81;100.00
9750;BME280;4914;43.218;27.908;2023-01-29T10:47:01;101254.72;;;2.91;100.00
9750;BME280;4914;43.218;27.908;2023-01-29T10:50:05;101256.75;;;2.83;100.00
9750;BME280;4914;43.218;27.908;2023-01-29T10:52:55;101246.28;;;2.83;100.00
9750;BME280;4914;43.218;27.908;2023-01-29T10:55:42;101251.06;;;2.95;100.00
9750;BME280;4914;43.218;27.908;2023-01-29T10:58:20;101245.63;;;2.76;100.00
9750;BME280;4914;43.218;27.908;2023-01-29T11:00:51;101246.69;;;2.71;100.00
9750;BME280;4914;43.218;27.908;2023-01-29T11:03:22;101242.28;;;2.71;100.00
9750;BME280;4914;43.218;27.908;2023-01-29T11:05:54;101248.97;;;2.80;100.00
9750;BME280;4914;43.218;27.908;2023-01-29T11:08:25;101245.78;;;2.72;100.00
9750;BME280;4914;43.218;27.908;2023-01-29T11:11:03;101254.94;;;2.85;100.00
9750;BME280;4914;43.218;27.908;2023-01-29T11:13:36;101249.47;;;2.91;100.00
9750;BME280;4914;43.218;27.908;2023-01-29T11:16:04;101253.00;;;2.90;100.00
9750;BME280;4914;43.218;27.908;2023-01-29T11:18:51;101262.13;;;3.03;100.00
9750;BME280;4914;43.218;27.908;2023-01-29T11:21:18;101256.31;;;2.95;100.00
9750;BME280;4914;43.218;27.908;2023-01-29T11:23:46;101240.94;;;2.84;100.00
9750;BME280;4914;43.218;27.908;2023-01-29T11:26:17;101250.41;;;2.88;100.00
9750;BME280;4914;43.218;27.908;2023-01-29T11:28:46;101254.03;;;2.86;100.00
9750;BME280;4914;43.218;27.908;2023-01-29T11:31:19;101253.19;;;2.84;100.00
9750;BME280;4914;43.218;27.908;2023-01-29T11:33:47;101252.59;;;2.77;100.00
9750;BME280;4914;43.218;27.908;2023-01-29T11:36:21;101247.59;;;2.70;100.00
9750;BME280;4914;43.218;27.908;2023-01-29T11:39:12;101253.47;;;2.76;100.00
9750;BME280;4914;43.218;27.908;2023-01-29T11:41:48;101259.84;;;2.94;100.00
9750;BME280;4914;43.218;27.908;2023-01-29T11:44:20;101257.28;;;2.92;100.00
9750;BME280;4914;43.218;27.908;2023-01-29T11:46:47;101268.31;;;3.02;100.00
9750;BME280;4914;43.218;27.908;2023-01-29T11:49:22;101264.00;;;2.75;100.00
9750;BME280;4914;43.218;27.908;2023-01-29T11:51:53;101259.38;;;2.83;100.00
9750;BME280;4914;43.218;27.908;2023-01-29T11:54:25;101252.41;;;2.82;100.00
9750;BME280;4914;43.218;27.908;2023-01-29T11:56:56;101250.41;;;2.88;100.00
9750;BME280;4914;43.218;27.908;2023-01-29T11:59:33;101248.97;;;2.80;100.00
9750;BME280;4914;43.218;27.908;2023-01-29T12:02:10;101249.47;;;2.91;100.00
9750;BME280;4914;43.218;27.908;2023-01-29T12:04:40;101244.38;;;3.11;100.00
9750;BME280;4914;43.218;27.908;2023-01-29T12:07:11;101238.31;;;3.32;100.00
9750;BME280;4914;43.218;27.908;2023-01-29T12:09:40;101245.69;;;3.23;100.00
9750;BME280;4914;43.218;27.908;2023-01-29T12:12:34;101242.16;;;3.24;100.00
9750;BME280;4914;43.218;27.908;2023-01-29T12:15:14;101244.09;;;3.19;100.00
9750;BME280;4914;43.218;27.908;2023-01-29T12:17:44;101253.72;;;3.18;100.00
9750;BME280;4914;43.218;27.908;2023-01-29T12:20:16;101256.28;;;3.20;100.00
9750;BME280;4914;43.218;27.908;2023-01-29T12:22:49;101252.81;;;3.42;100.00
9750;BME280;4914;43.218;27.908;2023-01-29T12:25:21;101250.59;;;3.32;100.00
9750;BME280;4914;43.218;27.908;2023-01-29T12:27:55;101261.53;;;3.20;100.00
9750;BME280;4914;43.218;27.908;2023-01-29T12:30:29;101266.28;;;3.10;100.00
9750;BME280;4914;43.218;27.908;2023-01-29T12:33:02;101267.38;;;3.03;100.00
9750;BME280;4914;43.218;27.908;2023-01-29T12:35:34;101267.22;;;3.07;100.00
9750;BME280;4914;43.218;27.908;2023-01-29T12:38:09;101272.75;;;3.00;100.00
9750;BME280;4914;43.218;27.908;2023-01-29T12:40:42;101265.28;;;2.88;100.00
9750;BME280;4914;43.218;27.908;2023-01-29T12:43:14;101268.06;;;2.83;100.00
9750;BME280;4914;43.218;27.908;2023-01-29T12:45:43;101261.03;;;2.85;100.00
9750;BME280;4914;43.218;27.908;2023-01-29T12:48:18;101271.31;;;2.91;100.00
9750;BME280;4914;43.218;27.908;2023-01-29T12:50:48;101264.63;;;3.99;100.00
9750;BME280;4914;43.218;27.908;2023-01-29T12:53:24;101256.88;;;5.00;100.00
9750;BME280;4914;43.218;27.908;2023-01-29T12:55:54;101255.16;;;5.76;87.58
9750;BME280;4914;43.218;27.908;2023-01-29T12:58:28;101263.84;;;6.51;75.94
9750;BME280;4914;43.218;27.908;2023-01-29T13:01:02;101277.94;;;7.01;72.12
9750;BME280;4914;43.218;27.908;2023-01-29T13:03:33;101269.91;;;7.20;71.08
9750;BME280;4914;43.218;27.908;2023-01-29T13:06:06;101265.50;;;6.18;80.85
9750;BME280;4914;43.218;27.908;2023-01-29T13:08:37;101267.50;;;7.00;72.70
9750;BME280;4914;43.218;27.908;2023-01-29T13:11:09;101265.34;;;7.24;70.48
9750;BME280;4914;43.218;27.908;2023-01-29T13:13:42;101274.84;;;6.42;71.42
9750;BME280;4914;43.218;27.908;2023-01-29T13:16:19;101287.59;;;6.85;71.92
9750;BME280;4914;43.218;27.908;2023-01-29T13:18:50;101275.00;;;7.08;67.21
9750;BME280;4914;43.218;27.908;2023-01-29T13:21:22;101277.81;;;6.87;68.04
9750;BME280;4914;43.218;27.908;2023-01-29T13:23:51;101290.91;;;6.72;70.46
9750;BME280;4914;43.218;27.908;2023-01-29T13:26:19;101286.25;;;7.11;68.44
9750;BME280;4914;43.218;27.908;2023-01-29T13:28:48;101292.88;;;7.03;64.21
9750;BME280;4914;43.218;27.908;2023-01-29T13:31:27;101288.03;;;6.76;68.57